WetterOnline ( https://www.wetteronline.de )

Wetter aktuell PLZ Bereich 19336

Aktuelles Wetter: Seehausen (23m)

6-stündlich | Neueste Meldungen
Ortszeit Temperatur Wetter
Mo, 17.05. 20:00 16.1° C fast wolkenlos
Mo, 17.05. 14:00 16.3° C leicht bewölkt
Mo, 17.05. 8:00 11.6° C wolkenlos
Mo, 17.05. 2:00 9.9° C bewölkt
So, 16.05. 20:00 14.0° C bedeckt
So, 16.05. 14:00 13.5° C bewölkt
So, 16.05. 8:00 10.2° C leichter Regen
So, 16.05. 2:00 9.2° C bedeckt
Ortszeit Temperatur Wetter
Di, 18.05. 0:00 9.6° C leicht bewölkt
Mo, 17.05. 23:30 10.0° C leicht bewölkt
Mo, 17.05. 23:20 10.0° C leicht bewölkt
Mo, 17.05. 23:10 10.7° C leicht bewölkt
Mo, 17.05. 23:00 11.0° C wolkig
Mo, 17.05. 22:50 11.0° C wolkig
Mo, 17.05. 22:30 12.5° C bedeckt
Mo, 17.05. 22:00 12.4° C leicht bewölkt
Ortszeit Relative Feuchte Sichtweite
Mo, 17.05. 20:00 62% >70 km
Mo, 17.05. 14:00 57% 60 km
Mo, 17.05. 8:00 82% >70 km
Mo, 17.05. 2:00 94% 45 km
So, 16.05. 20:00 68% 65 km
So, 16.05. 14:00 79% 40 km
So, 16.05. 8:00 96% 22 km
So, 16.05. 2:00 99% 50 km
Ortszeit Relative Feuchte Sichtweite
Di, 18.05. 0:00 94% 45 km
Mo, 17.05. 23:30 93% 45 km
Mo, 17.05. 23:20 93% -
Mo, 17.05. 23:10 91% -
Mo, 17.05. 23:00 90% 50 km
Mo, 17.05. 22:50 90% -
Mo, 17.05. 22:30 88% 65 km
Mo, 17.05. 22:00 86% >70 km
Ortszeit Niederschlagsmenge Niederschlagsart
Mo, 17.05. 20:00 0.2 l/m2 in 12 Std. Regen
Mo, 17.05. 14:00 0.1 l/m2 in 6 Std. Regen
Mo, 17.05. 8:00 0.1 l/m2 in 12 Std. Regen
Mo, 17.05. 2:00 0.0 l/m2 in 6 Std. -
So, 16.05. 20:00 0.9 l/m2 in 12 Std. Regen
So, 16.05. 14:00 0.9 l/m2 in 6 Std. Regen
So, 16.05. 8:00 3 l/m2 in 12 Std. Regen
So, 16.05. 2:00 1 l/m2 in 6 Std. Regen
Ortszeit Niederschlagsmenge Niederschlagsart
Di, 18.05. 0:00 keine Meldung -
Mo, 17.05. 23:30 0.0 l/m2 in 1 Std. -
Mo, 17.05. 23:20 keine Meldung -
Mo, 17.05. 23:10 keine Meldung -
Mo, 17.05. 23:00 0.0 l/m2 in 1 Std. -
Mo, 17.05. 22:50 keine Meldung -
Mo, 17.05. 22:30 0.0 l/m2 in 1 Std. -
Mo, 17.05. 22:00 0.0 l/m2 in 1 Std. -
Ortszeit Stärke Spitze Richtung
km/h Bft. km/h Grad Sektor
Mo, 17.05. 20:00 11 2 32 250° W
Mo, 17.05. 14:00 7 2 25 280° W
Mo, 17.05. 8:00 11 2 19 220° SW
Mo, 17.05. 2:00 7 2 14 160° S
So, 16.05. 20:00 6 1 41 150° SO
So, 16.05. 14:00 11 2 43 260° W
So, 16.05. 8:00 15 3 22 230° SW
So, 16.05. 2:00 7 2 29 140° SO
Ortszeit Stärke Spitze Richtung
km/h Bft. km/h Grad Sektor
Di, 18.05. 0:00 6 1 7 230° SW
Mo, 17.05. 23:30 6 1 7 240° SW
Mo, 17.05. 23:20 6 1 - 240° SW
Mo, 17.05. 23:10 4 1 - 230° SW
Mo, 17.05. 23:00 4 1 7 230° SW
Mo, 17.05. 22:50 4 1 - 230° SW
Mo, 17.05. 22:30 4 1 4 150° SO
Mo, 17.05. 22:00 4 1 4 280° W
Ortszeit Untergrenze Bedeckung Gattung
total tief tief mittel hoch
Mo, 17.05. 20:00 2400 m 0/8 0/8 - - -
Mo, 17.05. 14:00 2100 m 5/8 2/8 - - -
Mo, 17.05. 8:00 - 0/8 0/8 - - -
Mo, 17.05. 2:00 1500 m 8/8 4/8 - - -
So, 16.05. 20:00 2100 m 8/8 8/8 - - -
So, 16.05. 14:00 960 m 7/8 7/8 - - -
So, 16.05. 8:00 540 m 7/8 7/8 - - -
So, 16.05. 2:00 1500 m 8/8 8/8 - - -
Ortszeit Bedeckungsgrad in Achtel und Wolkenuntergrenze
Di, 18.05. 0:00 2(2400m)
Mo, 17.05. 23:30 2(2100m)
Mo, 17.05. 23:20 2(2100m)
Mo, 17.05. 23:10 2(2100m)
Mo, 17.05. 23:00 3(1260m) 6(2400m)
Mo, 17.05. 22:50 3(1260m) 6(2400m)
Mo, 17.05. 22:30 6(1230m) 8(2100m) 8(7200m)
Mo, 17.05. 22:00 3(2400m) 5(7500m) 5(8100m)
Ortszeit Luftdruck NN (hPa) Tendenz (hPa in 3 Std.)
Mo, 17.05. 20:00 1004 + 0,8
Mo, 17.05. 14:00 1003 + 0,2
Mo, 17.05. 8:00 1002 + 0,7
Mo, 17.05. 2:00 1001 + 0,1
So, 16.05. 20:00 1001 - 0,3
So, 16.05. 14:00 1002 0,0
So, 16.05. 8:00 1002 + 0,2
So, 16.05. 2:00 1002 - 0,6
Ortszeit Luftdruck NN (hPa) Tendenz (hPa in 3 Std.)
Di, 18.05. 0:00 1006 + 1,1
Mo, 17.05. 23:30 1006 + 1,2
Mo, 17.05. 23:20 1006 keine Meldung
Mo, 17.05. 23:10 1006 keine Meldung
Mo, 17.05. 23:00 1005 + 1,3
Mo, 17.05. 22:50 1005 keine Meldung
Mo, 17.05. 22:30 1005 + 1,4
Mo, 17.05. 22:00 1005 + 1,4
Ortszeit Schneehöhe (cm)
Mo, 17.05. 20:00 0
Mo, 17.05. 14:00 0
Mo, 17.05. 8:00 0
Mo, 17.05. 2:00 0
So, 16.05. 20:00 0
So, 16.05. 14:00 0
So, 16.05. 8:00 0
So, 16.05. 2:00 0
Ortszeit Schneehöhe (cm)
Di, 18.05. 0:00 -
Mo, 17.05. 23:30 0
Mo, 17.05. 23:20 0
Mo, 17.05. 23:10 0
Mo, 17.05. 23:00 0
Mo, 17.05. 22:50 0
Mo, 17.05. 22:30 0
Mo, 17.05. 22:00 0
Link zu dieser Seite / Seite empfehlen

Das Wetter in ...